Flight Track Log - Related Links

Times and Time Zones

All times are in EDT time to prevent confusion due to time zone crossing. See the N41PG flight status page for this flight to view local times or setup timezone preferences in your user account.

Time Position Orientation Groundspeed Altitude Reporting Facility
EDT Latitude Longitude Course Direction KTS MPH feet Rate Location/Type
Wed 03:36:14 PM 33.9167 -84.2833 12° North 192 221 2,300  Level Atlanta TRACON
Wed 03:37:14 PM 33.9833 -84.2667 12° North 241 277 4,300 1,900 Climbing Atlanta TRACON
Wed 03:38:14 PM 34.0333 -84.3167 320° Northwest 260 299 6,100 1,895 Climbing Atlanta TRACON
Wed 03:39:08 PM 34.0833 -84.3833 312° West 274 315 7,900 1,756 Climbing Atlanta TRACON
Wed 03:40:17 PM 34.1422 -84.4556 315° West 274 315 9,700 1,535 Climbing Atlanta Center
Wed 03:41:17 PM 34.1961 -84.5183 316° Northwest 284 327 11,200 1,650 Climbing Atlanta Center
Wed 03:42:17 PM 34.2500 -84.5842 315° West 284 327 13,000 1,400 Climbing Atlanta Center
Wed 03:43:17 PM 34.3103 -84.6525 317° Northwest 284 327 14,000 550 Climbing Atlanta Center
Wed 03:44:17 PM 34.3725 -84.7233 317° Northwest 295 339 14,100 750 Climbing Atlanta Center
Wed 03:45:17 PM 34.4539 -84.7567 341° North 295 339 15,500 1,450 Climbing Atlanta Center
Wed 03:46:17 PM 34.5350 -84.7725 351° North 295 339 17,000 1,488 Climbing Atlanta Center
Wed 03:47:18 PM 34.6206 -84.7908 350° North 290 334 18,500 1,350 Climbing Atlanta Center
Wed 03:48:17 PM 34.6892 -84.8092 348° North 290 334 19,700 1,261 Climbing Atlanta Center
Wed 03:49:17 PM 34.7664 -84.8278 349° North 279 321 21,000 1,200 Climbing Atlanta Center
Wed 03:50:17 PM 34.8456 -84.8436 351° North 279 321 22,100 1,050 Climbing Atlanta Center
Wed 03:51:17 PM 34.9228 -84.8594 350° North 279 321 23,100 950 Climbing Atlanta Center
Wed 03:52:17 PM 35.0039 -84.8781 349° North 279 321 24,000 950 Climbing Atlanta Center
Wed 03:53:17 PM 35.0853 -84.8967 349° North 284 327 25,000 950 Climbing Atlanta Center
Wed 03:54:17 PM 35.1664 -84.9128 351° North 289 333 25,900 500 Climbing Atlanta Center
Wed 03:55:17 PM 35.2497 -84.9314 350° North 294 338 26,000 50 Climbing Atlanta Center
Wed 03:56:17 PM 35.3372 -84.9503 350° North 301 346 26,000  Level Atlanta Center
Wed 03:57:17 PM 35.4311 -84.9692 351° North 320 368 26,000 350 Level Atlanta Center
Wed 03:58:17 PM 35.5206 -84.9906 349° North 325 374 26,700 650 Climbing Atlanta Center
Wed 03:59:17 PM 35.6103 -85.0094 350° North 325 374 27,300 700 Climbing Atlanta Center
Wed 04:00:17 PM 35.6975 -85.0308 349° North 325 374 28,100 793 Climbing Atlanta Center
Wed 04:01:18 PM 35.7831 -85.0525 348° North 320 368 28,900 645 Climbing Atlanta Center
Wed 04:02:18 PM 35.8725 -85.0714 350° North 315 362 29,400 443 Climbing Atlanta Center
Wed 04:03:47 PM 35.9975 -85.0953 351° North 320 368 30,000 237 Climbing Indianapolis Center
Wed 04:04:50 PM 36.1069 -85.1189 350° North 330 380 30,000  Level Indianapolis Center
Wed 04:05:52 PM 36.2008 -85.1400 350° North 338 389 30,000  Level Indianapolis Center
Wed 04:06:54 PM 36.2969 -85.1606 350° North 349 402 30,000  Level Indianapolis Center
Wed 04:07:56 PM 36.3928 -85.1819 350° North 349 402 30,000  Level Indianapolis Center
Wed 04:08:58 PM 36.4881 -85.2036 350° North 348 400 30,000  Level Indianapolis Center
Wed 04:10:00 PM 36.5844 -85.2253 350° North 349 402 30,000  Level Indianapolis Center
Wed 04:11:02 PM 36.6792 -85.2456 350° North 348 400 30,000  Level Indianapolis Center
Wed 04:12:04 PM 36.7933 -85.2722 349° North 348 400 30,000  Level Indianapolis Center
Wed 04:13:06 PM 36.8883 -85.2953 349° North 348 400 30,000  Level Indianapolis Center
Wed 04:14:08 PM 36.9844 -85.3189 349° North 350 403 30,000  Level Indianapolis Center
Wed 04:15:10 PM 37.0850 -85.3408 350° North 354 407 30,000  Level Indianapolis Center
Wed 04:16:12 PM 37.1814 -85.3625 350° North 351 404 30,000  Level Indianapolis Center
Wed 04:17:14 PM 37.2789 -85.3800 352° North 352 405 30,000  Level Indianapolis Center
Wed 04:18:16 PM 37.3919 -85.4022 351° North 350 403 30,000  Level Indianapolis Center
Wed 04:19:18 PM 37.4889 -85.4214 351° North 350 403 30,000 -194 Level Indianapolis Center
Wed 04:20:20 PM 37.5864 -85.4408 351° North 354 407 29,600 -484 Descending Indianapolis Center
Wed 04:21:22 PM 37.6875 -85.4617 351° North 362 417 29,000 -290 Descending Indianapolis Center
Wed 04:22:24 PM 37.7894 -85.4800 352° North 367 422 29,000  Level Indianapolis Center
Wed 04:23:27 PM 37.8900 -85.4989 352° North 367 422 29,000  Level Indianapolis Center
Wed 04:24:29 PM 37.9883 -85.5186 351° North 359 413 29,000  Level Indianapolis Center
Wed 04:25:31 PM 38.1058 -85.5406 352° North 355 409 29,000 -435 Level Indianapolis Center
Wed 04:26:33 PM 38.2058 -85.5603 351° North 361 415 28,100 -919 Descending Indianapolis Center
Wed 04:27:35 PM 38.3114 -85.5811 351° North 378 435 27,100 -1,065 Descending Indianapolis Center
Wed 04:28:37 PM 38.4172 -85.6019 351° North 383 441 25,900 -1,113 Descending Indianapolis Center
Wed 04:29:39 PM 38.5186 -85.6219 351° North 371 427 24,800 -919 Descending Indianapolis Center
Wed 04:30:41 PM 38.6117 -85.6411 351° North 341 392 24,000 -1,210 Descending Indianapolis Center
Wed 04:31:43 PM 38.7236 -85.6611 352° North 349 402 22,300 -1,839 Descending Indianapolis Center
Wed 04:32:45 PM 38.8178 -85.6769 353° North 345 397 20,200 -2,032 Descending Indianapolis Center
Wed 04:33:47 PM 38.9069 -85.6933 352° North 329 379 18,100 -2,032 Descending Indianapolis Center
Wed 04:34:49 PM 38.9922 -85.7089 352° North 313 360 16,000 -1,984 Descending Indianapolis Center
Wed 04:35:51 PM 39.0772 -85.7253 351° North 311 358 14,000 -1,597 Descending Indianapolis Center
Wed 04:36:53 PM 39.1742 -85.7436 352° North 296 341 12,700 -1,355 Descending Indianapolis Center
Wed 04:37:55 PM 39.2547 -85.7578 352° North 294 338 11,200 -1,258 Descending Indianapolis Center
Wed 04:38:57 PM 39.3278 -85.7883 342° North 283 326 10,100 -581 Descending Indianapolis Center
Wed 04:39:59 PM 39.3831 -85.8547 317° Northwest 276 318 10,000 -145 Descending Indianapolis Center
Wed 04:41:01 PM 39.4406 -85.9194 319° Northwest 274 315 9,800 -919 Descending Indianapolis Center
Wed 04:42:03 PM 39.5067 -85.9994 317° Northwest 274 315 8,100 -864 Descending Indianapolis Center
Wed 04:43:06 PM 39.5628 -86.0656 318° Northwest 272 313 8,000 -48 Descending Indianapolis Center
Wed 04:44:08 PM 39.6183 -86.1325 317° Northwest 273 314 8,000 -435 Level Indianapolis Center
Wed 04:45:10 PM 39.6425 -86.2211 290° West 277 319 7,100 -1,210 Descending Indianapolis Center
Wed 04:46:12 PM 39.5972 -86.2956 232° Southwest 267 307 5,500 -1,935 Descending Indianapolis Center
Wed 04:47:14 PM 39.5936 -86.3694 266° West 259 298 3,100 -1,645 Descending Indianapolis Center
Wed 04:48:16 PM 39.6561 -86.3669 North 237 273 2,100 -1,016 Descending Indianapolis Center
Wed 04:49:18 PM 39.7028 -86.3253 34° Northeast 186 214 1,000 -1,065 Descending Indianapolis Center
Wed 04:51:00 PM 39.7173 -86.2947 142° Southeast  Level Estimated

Login

Don't have an account? Register now (free) for customized features, flight alerts, and more!